sensor_id;sensor_type;location;lat;lon;timestamp;temperature;humidity
18593;DHT22;9426;54.118;17.948;2024-03-29T00:02:14;7.40;99.90
18593;DHT22;9426;54.118;17.948;2024-03-29T00:07:40;7.30;99.90
18593;DHT22;9426;54.118;17.948;2024-03-29T00:13:04;7.40;99.90
18593;DHT22;9426;54.118;17.948;2024-03-29T00:18:29;7.60;99.90
18593;DHT22;9426;54.118;17.948;2024-03-29T00:23:57;7.40;99.90
18593;DHT22;9426;54.118;17.948;2024-03-29T00:29:22;6.50;99.90
18593;DHT22;9426;54.118;17.948;2024-03-29T00:34:48;7.30;99.90
18593;DHT22;9426;54.118;17.948;2024-03-29T00:40:14;7.40;99.90
18593;DHT22;9426;54.118;17.948;2024-03-29T00:45:40;7.40;99.90
18593;DHT22;9426;54.118;17.948;2024-03-29T00:51:04;8.10;99.90
18593;DHT22;9426;54.118;17.948;2024-03-29T00:56:30;7.20;99.90
18593;DHT22;9426;54.118;17.948;2024-03-29T01:01:54;7.10;99.90
18593;DHT22;9426;54.118;17.948;2024-03-29T01:07:21;7.70;99.90
18593;DHT22;9426;54.118;17.948;2024-03-29T01:12:53;6.80;99.90
18593;DHT22;9426;54.118;17.948;2024-03-29T01:23:46;6.50;99.90
18593;DHT22;9426;54.118;17.948;2024-03-29T01:29:17;6.50;99.90
18593;DHT22;9426;54.118;17.948;2024-03-29T01:34:42;6.30;99.90
18593;DHT22;9426;54.118;17.948;2024-03-29T01:40:08;6.20;99.90
18593;DHT22;9426;54.118;17.948;2024-03-29T01:45:41;6.20;99.90
18593;DHT22;9426;54.118;17.948;2024-03-29T01:51:12;6.10;99.90
18593;DHT22;9426;54.118;17.948;2024-03-29T01:56:40;5.90;99.90
18593;DHT22;9426;54.118;17.948;2024-03-29T02:02:09;5.80;99.90
18593;DHT22;9426;54.118;17.948;2024-03-29T02:07:36;5.50;99.90
18593;DHT22;9426;54.118;17.948;2024-03-29T02:13:03;5.40;99.90
18593;DHT22;9426;54.118;17.948;2024-03-29T02:18:30;5.50;99.90
18593;DHT22;9426;54.118;17.948;2024-03-29T02:24:04;5.50;99.90
18593;DHT22;9426;54.118;17.948;2024-03-29T02:29:37;5.20;99.90
18593;DHT22;9426;54.118;17.948;2024-03-29T02:35:03;6.30;99.90
18593;DHT22;9426;54.118;17.948;2024-03-29T02:40:33;5.00;99.90
18593;DHT22;9426;54.118;17.948;2024-03-29T02:45:59;4.80;99.90
18593;DHT22;9426;54.118;17.948;2024-03-29T02:51:25;4.80;99.90
18593;DHT22;9426;54.118;17.948;2024-03-29T02:56:52;4.60;99.90
18593;DHT22;9426;54.118;17.948;2024-03-29T03:02:17;4.90;99.90
18593;DHT22;9426;54.118;17.948;2024-03-29T03:07:43;4.80;99.90
18593;DHT22;9426;54.118;17.948;2024-03-29T03:13:27;4.80;99.90
18593;DHT22;9426;54.118;17.948;2024-03-29T03:18:53;4.90;99.90
18593;DHT22;9426;54.118;17.948;2024-03-29T03:24:19;4.70;99.90
18593;DHT22;9426;54.118;17.948;2024-03-29T03:29:48;4.90;99.90
18593;DHT22;9426;54.118;17.948;2024-03-29T03:35:17;5.00;99.90
18593;DHT22;9426;54.118;17.948;2024-03-29T03:40:43;4.80;99.90
18593;DHT22;9426;54.118;17.948;2024-03-29T03:46:11;4.60;99.90
18593;DHT22;9426;54.118;17.948;2024-03-29T03:51:38;5.00;99.90
18593;DHT22;9426;54.118;17.948;2024-03-29T03:57:06;4.50;99.90
18593;DHT22;9426;54.118;17.948;2024-03-29T04:02:41;4.40;99.90
18593;DHT22;9426;54.118;17.948;2024-03-29T04:08:10;3.10;99.90
18593;DHT22;9426;54.118;17.948;2024-03-29T04:13:39;4.00;99.90
18593;DHT22;9426;54.118;17.948;2024-03-29T04:19:07;3.80;99.90
18593;DHT22;9426;54.118;17.948;2024-03-29T04:24:34;3.90;99.90
18593;DHT22;9426;54.118;17.948;2024-03-29T04:30:01;4.00;99.90
18593;DHT22;9426;54.118;17.948;2024-03-29T04:35:28;3.90;99.90
18593;DHT22;9426;54.118;17.948;2024-03-29T04:40:54;3.50;99.90
18593;DHT22;9426;54.118;17.948;2024-03-29T04:46:20;4.10;99.90
18593;DHT22;9426;54.118;17.948;2024-03-29T04:51:48;3.60;99.90
18593;DHT22;9426;54.118;17.948;2024-03-29T04:57:14;4.30;99.90
18593;DHT22;9426;54.118;17.948;2024-03-29T05:02:40;4.40;99.90
18593;DHT22;9426;54.118;17.948;2024-03-29T05:08:08;4.40;99.90
18593;DHT22;9426;54.118;17.948;2024-03-29T05:13:38;4.60;99.90
18593;DHT22;9426;54.118;17.948;2024-03-29T05:19:06;4.40;99.90
18593;DHT22;9426;54.118;17.948;2024-03-29T05:24:34;4.70;99.90
18593;DHT22;9426;54.118;17.948;2024-03-29T05:30:09;4.50;99.90
18593;DHT22;9426;54.118;17.948;2024-03-29T05:36:01;5.10;99.90
18593;DHT22;9426;54.118;17.948;2024-03-29T05:41:51;5.10;99.90
18593;DHT22;9426;54.118;17.948;2024-03-29T05:48:05;5.20;99.90
18593;DHT22;9426;54.118;17.948;2024-03-29T05:54:03;4.60;99.90
18593;DHT22;9426;54.118;17.948;2024-03-29T05:59:34;5.80;99.90
18593;DHT22;9426;54.118;17.948;2024-03-29T06:05:00;5.80;99.90
18593;DHT22;9426;54.118;17.948;2024-03-29T06:10:26;5.90;99.90
18593;DHT22;9426;54.118;17.948;2024-03-29T06:16:02;6.10;99.90
18593;DHT22;9426;54.118;17.948;2024-03-29T06:22:08;6.20;99.90
18593;DHT22;9426;54.118;17.948;2024-03-29T06:28:12;7.20;99.90
18593;DHT22;9426;54.118;17.948;2024-03-29T06:33:54;6.50;99.90
18593;DHT22;9426;54.118;17.948;2024-03-29T06:40:11;6.70;99.90
18593;DHT22;9426;54.118;17.948;2024-03-29T07:24:18;8.30;99.90
18593;DHT22;9426;54.118;17.948;2024-03-29T07:29:49;8.70;99.90
18593;DHT22;9426;54.118;17.948;2024-03-29T07:35:14;8.60;99.90
18593;DHT22;9426;54.118;17.948;2024-03-29T07:40:44;8.80;99.90
18593;DHT22;9426;54.118;17.948;2024-03-29T07:46:17;8.80;99.90
18593;DHT22;9426;54.118;17.948;2024-03-29T07:51:45;9.10;99.90
18593;DHT22;9426;54.118;17.948;2024-03-29T07:57:15;9.20;99.90
18593;DHT22;9426;54.118;17.948;2024-03-29T08:02:42;9.40;99.90
18593;DHT22;9426;54.118;17.948;2024-03-29T08:08:09;9.70;99.90
18593;DHT22;9426;54.118;17.948;2024-03-29T08:13:56;9.80;99.90
18593;DHT22;9426;54.118;17.948;2024-03-29T08:19:46;10.40;99.90
18593;DHT22;9426;54.118;17.948;2024-03-29T08:25:37;9.10;99.90
18593;DHT22;9426;54.118;17.948;2024-03-29T08:31:11;10.00;99.90
18593;DHT22;9426;54.118;17.948;2024-03-29T08:36:37;10.20;99.90
18593;DHT22;9426;54.118;17.948;2024-03-29T08:42:05;10.60;99.90
18593;DHT22;9426;54.118;17.948;2024-03-29T08:47:43;10.70;99.90
18593;DHT22;9426;54.118;17.948;2024-03-29T08:53:10;10.70;99.90
18593;DHT22;9426;54.118;17.948;2024-03-29T08:58:36;11.00;99.90
18593;DHT22;9426;54.118;17.948;2024-03-29T09:04:05;11.10;99.90
18593;DHT22;9426;54.118;17.948;2024-03-29T09:09:34;11.20;99.90
18593;DHT22;9426;54.118;17.948;2024-03-29T09:15:03;11.30;99.90
18593;DHT22;9426;54.118;17.948;2024-03-29T09:20:34;11.70;99.90
18593;DHT22;9426;54.118;17.948;2024-03-29T09:26:05;11.80;99.90
18593;DHT22;9426;54.118;17.948;2024-03-29T09:31:32;11.80;99.90
18593;DHT22;9426;54.118;17.948;2024-03-29T09:37:05;11.90;99.90
18593;DHT22;9426;54.118;17.948;2024-03-29T09:42:33;12.00;99.90
18593;DHT22;9426;54.118;17.948;2024-03-29T09:48:02;12.20;99.90
18593;DHT22;9426;54.118;17.948;2024-03-29T09:53:33;13.30;99.90
18593;DHT22;9426;54.118;17.948;2024-03-29T09:59:03;12.20;99.90
18593;DHT22;9426;54.118;17.948;2024-03-29T10:04:33;12.80;99.90
18593;DHT22;9426;54.118;17.948;2024-03-29T10:10:14;13.10;99.90
18593;DHT22;9426;54.118;17.948;2024-03-29T10:15:50;13.30;99.90
18593;DHT22;9426;54.118;17.948;2024-03-29T10:21:28;14.10;99.90
18593;DHT22;9426;54.118;17.948;2024-03-29T10:27:35;13.00;99.90
18593;DHT22;9426;54.118;17.948;2024-03-29T10:34:01;12.80;99.90
18593;DHT22;9426;54.118;17.948;2024-03-29T10:40:53;13.10;99.90
18593;DHT22;9426;54.118;17.948;2024-03-29T10:54:32;12.30;99.90
18593;DHT22;9426;54.118;17.948;2024-03-29T11:02:07;12.80;99.90
18593;DHT22;9426;54.118;17.948;2024-03-29T11:09:05;13.30;99.90
18593;DHT22;9426;54.118;17.948;2024-03-29T11:23:06;14.70;99.90
18593;DHT22;9426;54.118;17.948;2024-03-29T12:40:32;17.60;99.90
18593;DHT22;9426;54.118;17.948;2024-03-29T12:46:01;17.90;99.90
18593;DHT22;9426;54.118;17.948;2024-03-29T12:51:47;16.30;99.90
18593;DHT22;9426;54.118;17.948;2024-03-29T12:57:14;15.90;99.90
18593;DHT22;9426;54.118;17.948;2024-03-29T13:03:05;15.80;99.90
18593;DHT22;9426;54.118;17.948;2024-03-29T13:08:33;15.70;99.90
18593;DHT22;9426;54.118;17.948;2024-03-29T13:14:01;15.30;99.90
18593;DHT22;9426;54.118;17.948;2024-03-29T13:19:36;17.20;99.90
18593;DHT22;9426;54.118;17.948;2024-03-29T13:25:01;18.00;99.90
18593;DHT22;9426;54.118;17.948;2024-03-29T13:30:32;16.80;99.90
18593;DHT22;9426;54.118;17.948;2024-03-29T13:35:53;16.20;99.90
18593;DHT22;9426;54.118;17.948;2024-03-29T13:42:33;15.80;99.90
18593;DHT22;9426;54.118;17.948;2024-03-29T13:48:16;15.40;99.90
18593;DHT22;9426;54.118;17.948;2024-03-29T13:53:46;15.90;99.90
18593;DHT22;9426;54.118;17.948;2024-03-29T14:07:28;15.30;99.90
18593;DHT22;9426;54.118;17.948;2024-03-29T14:20:51;15.20;99.90
18593;DHT22;9426;54.118;17.948;2024-03-29T14:46:59;14.20;99.90
18593;DHT22;9426;54.118;17.948;2024-03-29T14:52:23;14.60;99.90
18593;DHT22;9426;54.118;17.948;2024-03-29T16:59:20;12.70;99.90
18593;DHT22;9426;54.118;17.948;2024-03-29T17:04:46;12.60;99.90
18593;DHT22;9426;54.118;17.948;2024-03-29T17:17:20;12.30;99.90
18593;DHT22;9426;54.118;17.948;2024-03-29T17:22:45;12.30;99.90
18593;DHT22;9426;54.118;17.948;2024-03-29T17:33:55;12.00;99.90
18593;DHT22;9426;54.118;17.948;2024-03-29T17:39:44;11.80;99.90
18593;DHT22;9426;54.118;17.948;2024-03-29T17:45:08;11.70;99.90
18593;DHT22;9426;54.118;17.948;2024-03-29T17:50:34;10.50;99.90
18593;DHT22;9426;54.118;17.948;2024-03-29T17:56:01;11.50;99.90
18593;DHT22;9426;54.118;17.948;2024-03-29T18:01:25;11.50;99.90
18593;DHT22;9426;54.118;17.948;2024-03-29T18:06:50;11.40;99.90
18593;DHT22;9426;54.118;17.948;2024-03-29T18:12:14;11.40;99.90
18593;DHT22;9426;54.118;17.948;2024-03-29T18:17:38;11.30;99.90
18593;DHT22;9426;54.118;17.948;2024-03-29T18:23:05;11.30;99.90
18593;DHT22;9426;54.118;17.948;2024-03-29T18:28:29;11.30;99.90
18593;DHT22;9426;54.118;17.948;2024-03-29T18:33:53;11.30;99.90
18593;DHT22;9426;54.118;17.948;2024-03-29T18:39:18;11.30;99.90
18593;DHT22;9426;54.118;17.948;2024-03-29T18:44:41;11.20;99.90
18593;DHT22;9426;54.118;17.948;2024-03-29T18:50:04;11.20;99.90
18593;DHT22;9426;54.118;17.948;2024-03-29T18:55:29;11.10;99.90
18593;DHT22;9426;54.118;17.948;2024-03-29T19:00:52;11.20;99.90
18593;DHT22;9426;54.118;17.948;2024-03-29T19:06:16;11.20;99.90
18593;DHT22;9426;54.118;17.948;2024-03-29T19:11:44;11.20;99.90
18593;DHT22;9426;54.118;17.948;2024-03-29T19:17:14;11.20;99.90
18593;DHT22;9426;54.118;17.948;2024-03-29T19:22:38;11.30;99.90
18593;DHT22;9426;54.118;17.948;2024-03-29T19:28:25;10.70;99.90
18593;DHT22;9426;54.118;17.948;2024-03-29T19:33:48;11.30;99.90
18593;DHT22;9426;54.118;17.948;2024-03-29T19:39:11;11.30;99.90
18593;DHT22;9426;54.118;17.948;2024-03-29T19:44:36;11.40;99.90
18593;DHT22;9426;54.118;17.948;2024-03-29T19:49:59;11.40;99.90
18593;DHT22;9426;54.118;17.948;2024-03-29T19:55:23;11.40;99.90
18593;DHT22;9426;54.118;17.948;2024-03-29T20:00:47;11.40;99.90
18593;DHT22;9426;54.118;17.948;2024-03-29T20:06:10;11.40;99.90
18593;DHT22;9426;54.118;17.948;2024-03-29T20:11:32;11.50;99.90
18593;DHT22;9426;54.118;17.948;2024-03-29T20:16:57;11.50;99.90
18593;DHT22;9426;54.118;17.948;2024-03-29T20:22:20;11.50;99.90
18593;DHT22;9426;54.118;17.948;2024-03-29T20:27:43;11.60;99.90
18593;DHT22;9426;54.118;17.948;2024-03-29T20:33:07;11.60;99.90
18593;DHT22;9426;54.118;17.948;2024-03-29T20:38:30;11.40;99.90
18593;DHT22;9426;54.118;17.948;2024-03-29T20:43:53;11.40;99.90
18593;DHT22;9426;54.118;17.948;2024-03-29T20:49:17;11.70;99.90
18593;DHT22;9426;54.118;17.948;2024-03-29T20:54:40;12.00;99.90
18593;DHT22;9426;54.118;17.948;2024-03-29T21:00:04;12.20;99.90
18593;DHT22;9426;54.118;17.948;2024-03-29T21:05:29;12.20;99.90
18593;DHT22;9426;54.118;17.948;2024-03-29T21:10:54;12.20;99.90
18593;DHT22;9426;54.118;17.948;2024-03-29T21:16:17;12.10;99.90
18593;DHT22;9426;54.118;17.948;2024-03-29T21:21:41;12.20;99.90
18593;DHT22;9426;54.118;17.948;2024-03-29T21:27:04;12.30;99.90
18593;DHT22;9426;54.118;17.948;2024-03-29T21:32:27;12.40;99.90
18593;DHT22;9426;54.118;17.948;2024-03-29T21:37:52;12.70;99.90
18593;DHT22;9426;54.118;17.948;2024-03-29T21:43:16;12.80;99.90
18593;DHT22;9426;54.118;17.948;2024-03-29T21:48:39;12.90;99.90
18593;DHT22;9426;54.118;17.948;2024-03-29T21:54:03;12.80;99.90
18593;DHT22;9426;54.118;17.948;2024-03-29T21:59:25;12.80;99.90
18593;DHT22;9426;54.118;17.948;2024-03-29T22:04:49;12.70;99.90
18593;DHT22;9426;54.118;17.948;2024-03-29T22:10:17;12.70;99.90
18593;DHT22;9426;54.118;17.948;2024-03-29T22:15:41;12.50;99.90
18593;DHT22;9426;54.118;17.948;2024-03-29T22:21:05;12.20;99.90
18593;DHT22;9426;54.118;17.948;2024-03-29T22:26:29;12.10;99.90
18593;DHT22;9426;54.118;17.948;2024-03-29T22:31:53;12.00;99.90
18593;DHT22;9426;54.118;17.948;2024-03-29T22:37:16;12.00;99.90
18593;DHT22;9426;54.118;17.948;2024-03-29T22:42:43;12.00;99.90
18593;DHT22;9426;54.118;17.948;2024-03-29T22:48:08;11.70;99.90
18593;DHT22;9426;54.118;17.948;2024-03-29T22:53:33;11.40;99.90
18593;DHT22;9426;54.118;17.948;2024-03-29T22:59:01;11.40;99.90
18593;DHT22;9426;54.118;17.948;2024-03-29T23:04:27;11.50;99.90
18593;DHT22;9426;54.118;17.948;2024-03-29T23:09:52;11.40;99.90
18593;DHT22;9426;54.118;17.948;2024-03-29T23:15:19;11.30;99.90
18593;DHT22;9426;54.118;17.948;2024-03-29T23:20:51;10.90;99.90
18593;DHT22;9426;54.118;17.948;2024-03-29T23:26:16;10.90;99.90
18593;DHT22;9426;54.118;17.948;2024-03-29T23:31:41;11.00;99.90
18593;DHT22;9426;54.118;17.948;2024-03-29T23:37:05;11.00;99.90
18593;DHT22;9426;54.118;17.948;2024-03-29T23:42:31;11.00;99.90
18593;DHT22;9426;54.118;17.948;2024-03-29T23:47:56;10.90;99.90
18593;DHT22;9426;54.118;17.948;2024-03-29T23:53:20;10.80;99.90
18593;DHT22;9426;54.118;17.948;2024-03-29T23:58:43;10.60;99.90
